ARE4231 SKMR-SKBO
Flight info
| Callsign | ARE4231 |
|---|---|
| Flight time | 0h 47m |
| Altitude | 31000 |
| Route | AKPEK2E AKPEK UQ121 ISVAT ISVAT5E |
| Aircraft | A320/M-SDE3FGHIRWY/LB1 |
Departure
| Time | 2026-05-06 22:36 |
|---|---|
| Airport | Los Garzones Airport (SKMR) |
Arrival
| Time | 2026-05-06 23:24 |
|---|---|
| Airport | El Dorado International Airport (SKBO) |
| Time | Latitude | Longitude | Altitude | Speed | Heading |
|---|---|---|---|---|---|
| 2026-05-06 22:03 | 8.82462 | -75.82470 | 37 ft | 0 kts | 46° |
| 2026-05-06 22:26 | 8.82460 | -75.82472 | 37 ft | 3 kts | 45° |
| 2026-05-06 22:26 | 8.82442 | -75.82491 | 36 ft | 4 kts | 49° |
| 2026-05-06 22:26 | 8.82429 | -75.82512 | 36 ft | 4 kts | 96° |
| 2026-05-06 22:27 | 8.82433 | -75.82522 | 36 ft | 1 kts | 136° |
| 2026-05-06 22:27 | 8.82434 | -75.82523 | 36 ft | 0 kts | 136° |
| 2026-05-06 22:31 | 8.82426 | -75.82515 | 36 ft | 3 kts | 136° |
| 2026-05-06 22:31 | 8.82406 | -75.82496 | 34 ft | 5 kts | 137° |
| 2026-05-06 22:32 | 8.82372 | -75.82465 | 36 ft | 8 kts | 139° |
| 2026-05-06 22:32 | 8.82302 | -75.82458 | 34 ft | 13 kts | 184° |
| 2026-05-06 22:32 | 8.82199 | -75.82441 | 33 ft | 16 kts | 142° |
| 2026-05-06 22:32 | 8.82108 | -75.82357 | 32 ft | 19 kts | 138° |
| 2026-05-06 22:33 | 8.81999 | -75.82258 | 32 ft | 22 kts | 138° |
| 2026-05-06 22:33 | 8.81884 | -75.82154 | 30 ft | 19 kts | 137° |
| 2026-05-06 22:33 | 8.81776 | -75.82054 | 30 ft | 22 kts | 138° |
| 2026-05-06 22:33 | 8.81659 | -75.81949 | 31 ft | 21 kts | 137° |
| 2026-05-06 22:34 | 8.81597 | -75.81868 | 31 ft | 11 kts | 115° |
| 2026-05-06 22:34 | 8.81576 | -75.81871 | 31 ft | 4 kts | 287° |
| 2026-05-06 22:34 | 8.81593 | -75.81888 | 31 ft | 1 kts | 317° |
| 2026-05-06 22:34 | 8.81595 | -75.81890 | 31 ft | 0 kts | 317° |
| 2026-05-06 22:35 | 8.81698 | -75.81983 | 31 ft | 61 kts | 318° |
| 2026-05-06 22:35 | 8.82242 | -75.82479 | 35 ft | 144 kts | 317° |
| 2026-05-06 22:36 | 8.83068 | -75.83212 | 578 ft | 165 kts | 319° |
| 2026-05-06 22:36 | 8.83923 | -75.84031 | 1502 ft | 166 kts | 304° |
| 2026-05-06 22:36 | 8.84276 | -75.85003 | 2466 ft | 139 kts | 272° |
| 2026-05-06 22:36 | 8.84048 | -75.85912 | 2826 ft | 141 kts | 239° |
| 2026-05-06 22:37 | 8.83422 | -75.86807 | 3165 ft | 169 kts | 241° |
| 2026-05-06 22:37 | 8.83062 | -75.88027 | 3694 ft | 194 kts | 261° |
| 2026-05-06 22:37 | 8.82746 | -75.89379 | 4591 ft | 201 kts | 256° |
| 2026-05-06 22:37 | 8.82364 | -75.90758 | 5553 ft | 206 kts | 254° |
| 2026-05-06 22:38 | 8.81963 | -75.92158 | 6563 ft | 209 kts | 254° |
| 2026-05-06 22:38 | 8.81492 | -75.93568 | 7490 ft | 219 kts | 240° |
| 2026-05-06 22:38 | 8.80339 | -75.94690 | 7944 ft | 250 kts | 201° |
| 2026-05-06 22:38 | 8.78562 | -75.94931 | 8535 ft | 273 kts | 175° |
| 2026-05-06 22:39 | 8.76606 | -75.94695 | 9249 ft | 290 kts | 169° |
| 2026-05-06 22:39 | 8.74594 | -75.94322 | 10189 ft | 298 kts | 168° |
| 2026-05-06 22:39 | 8.72470 | -75.93896 | 10665 ft | 323 kts | 167° |
| 2026-05-06 22:39 | 8.70217 | -75.93451 | 11311 ft | 336 kts | 168° |
| 2026-05-06 22:40 | 8.67896 | -75.93019 | 12211 ft | 342 kts | 168° |
| 2026-05-06 22:40 | 8.65539 | -75.92607 | 13159 ft | 346 kts | 169° |
| 2026-05-06 22:40 | 8.63144 | -75.92207 | 14070 ft | 352 kts | 168° |
| 2026-05-06 22:40 | 8.60709 | -75.91809 | 14965 ft | 357 kts | 169° |
| 2026-05-06 22:41 | 8.55728 | -75.91002 | 16688 ft | 368 kts | 168° |
| 2026-05-06 22:41 | 8.53182 | -75.90588 | 17527 ft | 373 kts | 168° |
| 2026-05-06 22:41 | 8.50599 | -75.90168 | 18352 ft | 378 kts | 167° |
| 2026-05-06 22:42 | 8.47982 | -75.89739 | 19149 ft | 384 kts | 168° |
| 2026-05-06 22:42 | 8.45327 | -75.89299 | 19923 ft | 389 kts | 168° |
| 2026-05-06 22:42 | 8.42634 | -75.88850 | 20688 ft | 395 kts | 168° |
| 2026-05-06 22:42 | 8.39906 | -75.88397 | 21418 ft | 400 kts | 169° |
| 2026-05-06 22:43 | 8.37141 | -75.87940 | 22153 ft | 406 kts | 169° |
| 2026-05-06 22:43 | 8.34336 | -75.87478 | 22853 ft | 411 kts | 169° |
| 2026-05-06 22:43 | 8.31502 | -75.87011 | 23521 ft | 416 kts | 169° |
| 2026-05-06 22:43 | 8.28629 | -75.86541 | 24152 ft | 420 kts | 170° |
| 2026-05-06 22:44 | 8.25730 | -75.86068 | 24723 ft | 424 kts | 170° |
| 2026-05-06 22:44 | 8.22806 | -75.85592 | 25244 ft | 428 kts | 170° |
| 2026-05-06 22:44 | 8.19853 | -75.85109 | 25733 ft | 431 kts | 170° |
| 2026-05-06 22:44 | 8.16880 | -75.84616 | 26183 ft | 434 kts | 170° |
| 2026-05-06 22:45 | 8.13890 | -75.84121 | 26604 ft | 437 kts | 170° |
| 2026-05-06 22:45 | 8.10879 | -75.83628 | 26992 ft | 440 kts | 170° |
| 2026-05-06 22:45 | 8.07850 | -75.83135 | 27357 ft | 442 kts | 170° |
| 2026-05-06 22:45 | 8.04809 | -75.82639 | 27707 ft | 444 kts | 170° |
| 2026-05-06 22:46 | 8.01752 | -75.82136 | 28033 ft | 446 kts | 170° |
| 2026-05-06 22:46 | 7.98675 | -75.81630 | 28349 ft | 449 kts | 170° |
| 2026-05-06 22:46 | 7.95590 | -75.81085 | 28660 ft | 451 kts | 169° |
| 2026-05-06 22:46 | 7.92507 | -75.80489 | 28966 ft | 453 kts | 168° |
| 2026-05-06 22:47 | 7.89409 | -75.79855 | 29274 ft | 455 kts | 168° |
| 2026-05-06 22:47 | 7.86341 | -75.79214 | 29566 ft | 457 kts | 168° |
| 2026-05-06 22:47 | 7.83222 | -75.78561 | 29875 ft | 459 kts | 168° |
| 2026-05-06 22:47 | 7.80084 | -75.77914 | 30172 ft | 461 kts | 168° |
| 2026-05-06 22:48 | 7.76930 | -75.77277 | 30484 ft | 463 kts | 168° |
| 2026-05-06 22:48 | 7.73767 | -75.76648 | 30794 ft | 464 kts | 169° |
| 2026-05-06 22:48 | 7.70578 | -75.76019 | 30896 ft | 470 kts | 169° |
| 2026-05-06 22:49 | 7.64063 | -75.74737 | 30915 ft | 483 kts | 169° |
| 2026-05-06 22:49 | 7.57405 | -75.73416 | 30915 ft | 491 kts | 169° |
| 2026-05-06 22:50 | 7.50665 | -75.72069 | 30924 ft | 496 kts | 168° |
| 2026-05-06 22:50 | 7.43869 | -75.70713 | 30933 ft | 499 kts | 168° |
| 2026-05-06 22:51 | 7.37027 | -75.69356 | 30942 ft | 503 kts | 168° |
| 2026-05-06 22:51 | 7.30139 | -75.67990 | 30953 ft | 505 kts | 168° |
| 2026-05-06 22:51 | 7.26694 | -75.67307 | 31151 ft | 502 kts | 168° |
| 2026-05-06 22:52 | 7.23277 | -75.66629 | 31328 ft | 500 kts | 168° |
| 2026-05-06 22:52 | 7.16450 | -75.65275 | 30963 ft | 496 kts | 168° |
| 2026-05-06 22:52 | 7.13099 | -75.64610 | 30433 ft | 483 kts | 168° |
| 2026-05-06 22:53 | 7.09872 | -75.63971 | 30422 ft | 463 kts | 168° |
| 2026-05-06 22:53 | 7.06772 | -75.63355 | 30498 ft | 444 kts | 168° |
| 2026-05-06 22:53 | 7.03785 | -75.62758 | 30745 ft | 433 kts | 168° |
| 2026-05-06 22:53 | 7.00841 | -75.62171 | 30935 ft | 430 kts | 168° |
| 2026-05-06 22:54 | 6.97912 | -75.61590 | 30994 ft | 428 kts | 168° |
| 2026-05-06 22:54 | 6.92077 | -75.60435 | 31003 ft | 427 kts | 168° |
| 2026-05-06 22:55 | 6.86249 | -75.59279 | 31018 ft | 427 kts | 168° |
| 2026-05-06 22:55 | 6.80426 | -75.58133 | 31027 ft | 426 kts | 168° |
| 2026-05-06 22:56 | 6.74607 | -75.56978 | 31106 ft | 426 kts | 168° |
| 2026-05-06 22:56 | 6.68794 | -75.55815 | 31133 ft | 426 kts | 168° |
| 2026-05-06 22:57 | 6.62981 | -75.54664 | 31150 ft | 426 kts | 168° |
| 2026-05-06 22:57 | 6.57167 | -75.53513 | 31168 ft | 426 kts | 168° |
| 2026-05-06 22:58 | 6.51349 | -75.52365 | 31178 ft | 426 kts | 168° |
| 2026-05-06 22:58 | 6.45543 | -75.51213 | 31184 ft | 426 kts | 168° |
| 2026-05-06 22:59 | 6.39725 | -75.50064 | 31190 ft | 425 kts | 168° |
| 2026-05-06 22:59 | 6.33918 | -75.48920 | 31193 ft | 425 kts | 168° |
| 2026-05-06 23:00 | 6.28115 | -75.47771 | 31195 ft | 425 kts | 168° |
| 2026-05-06 23:00 | 6.22316 | -75.46621 | 31206 ft | 425 kts | 168° |
| 2026-05-06 23:01 | 6.16518 | -75.45473 | 31252 ft | 425 kts | 168° |
| 2026-05-06 23:01 | 6.10755 | -75.44338 | 31272 ft | 425 kts | 168° |
| 2026-05-06 23:02 | 6.04958 | -75.43192 | 31278 ft | 425 kts | 168° |
| 2026-05-06 23:02 | 5.99292 | -75.41600 | 31277 ft | 423 kts | 154° |
| 2026-05-06 23:02 | 5.96751 | -75.40113 | 31273 ft | 422 kts | 143° |
| 2026-05-06 23:03 | 5.94532 | -75.38194 | 31279 ft | 421 kts | 134° |
| 2026-05-06 23:03 | 5.90438 | -75.33990 | 31281 ft | 421 kts | 134° |
| 2026-05-06 23:04 | 5.86328 | -75.29787 | 31271 ft | 422 kts | 134° |
| 2026-05-06 23:04 | 5.82290 | -75.25652 | 30967 ft | 407 kts | 134° |
| 2026-05-06 23:04 | 5.80324 | -75.23633 | 30609 ft | 403 kts | 134° |
| 2026-05-06 23:05 | 5.78374 | -75.21631 | 30229 ft | 399 kts | 134° |
| 2026-05-06 23:05 | 5.76439 | -75.19648 | 29857 ft | 396 kts | 134° |
| 2026-05-06 23:05 | 5.74518 | -75.17677 | 29468 ft | 394 kts | 134° |
| 2026-05-06 23:05 | 5.72604 | -75.15713 | 29086 ft | 392 kts | 134° |
| 2026-05-06 23:06 | 5.70672 | -75.13788 | 28710 ft | 390 kts | 139° |
| 2026-05-06 23:06 | 5.68472 | -75.12207 | 28345 ft | 389 kts | 150° |
| 2026-05-06 23:06 | 5.66023 | -75.11074 | 27969 ft | 387 kts | 157° |
| 2026-05-06 23:06 | 5.63534 | -75.10055 | 27585 ft | 386 kts | 157° |
| 2026-05-06 23:07 | 5.61056 | -75.09037 | 27192 ft | 384 kts | 157° |
| 2026-05-06 23:07 | 5.58592 | -75.08021 | 26786 ft | 382 kts | 157° |
| 2026-05-06 23:07 | 5.56137 | -75.07007 | 26390 ft | 380 kts | 157° |
| 2026-05-06 23:07 | 5.53697 | -75.06001 | 25993 ft | 378 kts | 157° |
| 2026-05-06 23:08 | 5.51273 | -75.05003 | 25589 ft | 376 kts | 156° |
| 2026-05-06 23:08 | 5.48860 | -75.04007 | 25173 ft | 374 kts | 157° |
| 2026-05-06 23:08 | 5.46456 | -75.03016 | 24763 ft | 372 kts | 157° |
| 2026-05-06 23:08 | 5.44097 | -75.02044 | 24342 ft | 370 kts | 157° |
| 2026-05-06 23:09 | 5.41719 | -75.01065 | 23920 ft | 369 kts | 157° |
| 2026-05-06 23:09 | 5.39354 | -75.00091 | 23510 ft | 367 kts | 156° |
| 2026-05-06 23:09 | 5.37000 | -74.99119 | 23108 ft | 364 kts | 156° |
| 2026-05-06 23:09 | 5.34672 | -74.98141 | 22712 ft | 362 kts | 156° |
| 2026-05-06 23:10 | 5.32329 | -74.97143 | 22306 ft | 360 kts | 155° |
| 2026-05-06 23:10 | 5.30032 | -74.96161 | 21911 ft | 357 kts | 155° |
| 2026-05-06 23:10 | 5.27754 | -74.95187 | 21521 ft | 355 kts | 155° |
| 2026-05-06 23:10 | 5.25515 | -74.94231 | 21139 ft | 353 kts | 155° |
| 2026-05-06 23:11 | 5.23268 | -74.93264 | 20760 ft | 350 kts | 152° |
| 2026-05-06 23:11 | 5.21222 | -74.91987 | 20370 ft | 344 kts | 138° |
| 2026-05-06 23:11 | 5.20055 | -74.90878 | 20117 ft | 341 kts | 129° |
| 2026-05-06 23:11 | 5.18324 | -74.88293 | 19601 ft | 336 kts | 118° |
| 2026-05-06 23:12 | 5.17170 | -74.86261 | 19219 ft | 334 kts | 118° |
| 2026-05-06 23:12 | 5.16396 | -74.84898 | 18966 ft | 332 kts | 117° |
| 2026-05-06 23:12 | 5.15254 | -74.82894 | 18605 ft | 330 kts | 118° |
| 2026-05-06 23:12 | 5.14097 | -74.80918 | 18246 ft | 327 kts | 118° |
| 2026-05-06 23:13 | 5.12928 | -74.78974 | 17883 ft | 325 kts | 119° |
| 2026-05-06 23:13 | 5.11754 | -74.77050 | 17510 ft | 322 kts | 119° |
| 2026-05-06 23:13 | 5.10601 | -74.75167 | 17133 ft | 321 kts | 119° |
| 2026-05-06 23:13 | 5.09441 | -74.73263 | 16765 ft | 319 kts | 119° |
| 2026-05-06 23:14 | 5.08293 | -74.71371 | 16582 ft | 316 kts | 119° |
| 2026-05-06 23:14 | 5.07148 | -74.69480 | 16605 ft | 318 kts | 119° |
| 2026-05-06 23:14 | 5.05997 | -74.67578 | 16620 ft | 319 kts | 119° |
| 2026-05-06 23:14 | 5.04847 | -74.65676 | 16633 ft | 319 kts | 119° |
| 2026-05-06 23:15 | 5.03694 | -74.63770 | 16630 ft | 320 kts | 119° |
| 2026-05-06 23:15 | 5.02541 | -74.61866 | 16643 ft | 320 kts | 119° |
| 2026-05-06 23:15 | 5.01387 | -74.59958 | 16481 ft | 319 kts | 119° |
| 2026-05-06 23:15 | 5.00241 | -74.58066 | 16110 ft | 316 kts | 119° |
| 2026-05-06 23:16 | 4.99101 | -74.56185 | 15744 ft | 314 kts | 120° |
| 2026-05-06 23:16 | 4.97969 | -74.54316 | 15387 ft | 313 kts | 120° |
| 2026-05-06 23:16 | 4.96846 | -74.52455 | 15028 ft | 311 kts | 119° |
| 2026-05-06 23:16 | 4.95731 | -74.50606 | 14670 ft | 307 kts | 120° |
| 2026-05-06 23:17 | 4.94624 | -74.48779 | 14325 ft | 306 kts | 120° |
| 2026-05-06 23:17 | 4.93521 | -74.46966 | 13975 ft | 304 kts | 120° |
| 2026-05-06 23:17 | 4.92425 | -74.45161 | 13630 ft | 303 kts | 120° |
| 2026-05-06 23:17 | 4.91335 | -74.43360 | 13282 ft | 301 kts | 120° |
| 2026-05-06 23:18 | 4.90253 | -74.41570 | 12935 ft | 300 kts | 120° |
| 2026-05-06 23:18 | 4.89187 | -74.39809 | 12817 ft | 290 kts | 120° |
| 2026-05-06 23:18 | 4.88158 | -74.38110 | 12731 ft | 280 kts | 120° |
| 2026-05-06 23:18 | 4.87164 | -74.36470 | 12627 ft | 270 kts | 120° |
| 2026-05-06 23:19 | 4.86200 | -74.34883 | 12530 ft | 262 kts | 120° |
| 2026-05-06 23:19 | 4.85267 | -74.33346 | 12425 ft | 253 kts | 120° |
| 2026-05-06 23:19 | 4.84218 | -74.31962 | 12299 ft | 248 kts | 135° |
| 2026-05-06 23:19 | 4.82912 | -74.30807 | 11926 ft | 252 kts | 138° |
| 2026-05-06 23:20 | 4.81574 | -74.29654 | 11579 ft | 255 kts | 138° |
| 2026-05-06 23:20 | 4.80241 | -74.28509 | 11241 ft | 249 kts | 138° |
| 2026-05-06 23:20 | 4.78998 | -74.27359 | 10905 ft | 238 kts | 130° |
| 2026-05-06 23:20 | 4.77991 | -74.26110 | 10627 ft | 223 kts | 127° |
| 2026-05-06 23:21 | 4.77084 | -74.24899 | 10305 ft | 211 kts | 127° |
| 2026-05-06 23:21 | 4.76234 | -74.23768 | 10041 ft | 194 kts | 127° |
| 2026-05-06 23:21 | 4.75449 | -74.22730 | 9797 ft | 180 kts | 127° |
| 2026-05-06 23:21 | 4.74722 | -74.21769 | 9561 ft | 167 kts | 127° |
| 2026-05-06 23:22 | 4.74031 | -74.20855 | 9348 ft | 162 kts | 127° |
| 2026-05-06 23:22 | 4.73358 | -74.19959 | 9109 ft | 159 kts | 127° |
| 2026-05-06 23:22 | 4.72698 | -74.19068 | 8888 ft | 159 kts | 126° |
| 2026-05-06 23:22 | 4.72020 | -74.18186 | 8708 ft | 160 kts | 128° |
| 2026-05-06 23:23 | 4.71348 | -74.17295 | 8534 ft | 159 kts | 127° |
| 2026-05-06 23:23 | 4.70679 | -74.16419 | 8368 ft | 151 kts | 128° |
| 2026-05-06 23:23 | 4.70121 | -74.15685 | 8364 ft | 109 kts | 127° |
| 2026-05-06 23:23 | 4.69769 | -74.15225 | 8365 ft | 57 kts | 127° |
| 2026-05-06 23:24 | 4.69561 | -74.14949 | 8363 ft | 36 kts | 127° |
| 2026-05-06 23:24 | 4.69408 | -74.14748 | 8362 ft | 36 kts | 127° |
| 2026-05-06 23:24 | 4.69355 | -74.14617 | 8363 ft | 16 kts | 53° |
| 2026-05-06 23:24 | 4.69438 | -74.14554 | 8365 ft | 13 kts | 36° |
| 2026-05-06 23:25 | 4.69499 | -74.14521 | 8365 ft | 9 kts | 358° |
| 2026-05-06 23:25 | 4.69543 | -74.14565 | 8365 ft | 10 kts | 304° |
| 2026-05-06 23:25 | 4.69585 | -74.14624 | 8365 ft | 11 kts | 307° |
| 2026-05-06 23:25 | 4.69635 | -74.14688 | 8365 ft | 12 kts | 308° |
| 2026-05-06 23:26 | 4.69690 | -74.14760 | 8366 ft | 14 kts | 308° |
| 2026-05-06 23:26 | 4.69767 | -74.14797 | 8366 ft | 14 kts | 27° |
| 2026-05-06 23:26 | 4.69846 | -74.14737 | 8366 ft | 15 kts | 36° |
| 2026-05-06 23:26 | 4.69933 | -74.14673 | 8366 ft | 16 kts | 37° |
| 2026-05-06 23:27 | 4.70015 | -74.14611 | 8366 ft | 13 kts | 38° |
| 2026-05-06 23:27 | 4.70058 | -74.14578 | 8366 ft | 8 kts | 38° |
| 2026-05-06 23:27 | 4.70060 | -74.14531 | 8366 ft | 8 kts | 127° |
| 2026-05-06 23:27 | 4.70021 | -74.14481 | 8366 ft | 10 kts | 127° |
| 2026-05-06 23:28 | 4.69981 | -74.14422 | 8366 ft | 9 kts | 101° |
| 2026-05-06 23:28 | 4.70015 | -74.14390 | 8366 ft | 7 kts | 37° |
| 2026-05-06 23:28 | 4.70024 | -74.14383 | 8366 ft | 0 kts | 36° |